Flugplatz Leck

Für EDXK sind keine METAR/TAF Berichte vorhanden.
Es werden die Flugwettermeldungen vom Flugplatz Westerland Sylt in 41 km Entfernung angezeigt.

Bericht für EDXW

vom 17.09. um 14:20 UTC

Wind 27 kt aus 310°

Sichtweite 10 km oder mehr

gering bewölkt in 4100 ft

Temperatur 13.0°C

Taupunkt 8.0°C

Luftfeuchtigkeit 72%

Luftdruck 1014 hPa

EDXW 171420Z 31027KT 9999 FEW041 13/08 Q1014

Prognose für EDXW

vom 17.09. um 00:00 UTC

Zwischen 00:00 UTC und 00:00 UTC

Wind 25 kt aus 310°

Sichtweite 10 km oder mehr

gering bewölkt in 2000 ft

aufgelockert bewölkt in 4500 ft


Zwischen 00:00 UTC und 00:00 UTC zeitweise

Wind 35 kt aus 320° in Böen 50 kt

Regenschauer


Zwischen 00:00 UTC und 00:00 UTC zeitweise

Wind 30 kt aus 330° in Böen 45 kt

TAF EDXW 171400Z 1715/1721 31025KT 9999 FEW020CB SCT045 TEMPO 1715/1718 32035G50KT SHRA TEMPO 1718/1721 33030G45KT
Impressum